Ascutney, Vermont
Current Conditions -  °F | °C
As of 4:54 AM on Sunday 23 Nov 2014 (Local Time) from KVSF Reporting Station
Overcast Overcast  
Wind Chill: 42°   Ceiling: 2300
Heat Index: 42°   Visibility: 10mi
Dew Point: 39°   Wind: 3mph
Humidity: 89%   Direction: 230°SW
Pressure: 30.03"   Gusts: NA
Location:  43.41°N, 72.41°W
Report Text: KVSF 230954Z AUTO 23003KT 10SM OVC023 06/04 A3003 RMK AO2 RAE04 SLP175 P0000 T00560039
Loading
Personal Weather Stations






























Interactive Weather Map New forecast layout! Learn more

10-Day Weather Forecast

Advertisements
Track Severe Weather on mobile